Stolt Dipper — ZCMY3 — position and weather

sailwx.info

Track history (hours):
 
Tides and Currents Weather Stations Pressure Air Temp Water Temp Dewpoint Dewpoint Depression Visibility Wind Speed Wind Dir Waves Ship Positions

Stolt Dipper

Last reported at 2015-Jul-05 07:30 UTC. Time now 2015-Jul-05 07:50 UTC.
Position N 51°16' E 004°22'.

Length 96 m; draft 5 m.

Type: Tanker. MMSI: 319036000.

Date/timePositionNaut miles runAvg speedWind from/ knotsBaromVisibWave heightAir tempDewpointWater temp
2015-Jul-05 07:30N 51°16' E 004°22'0 0.0
2015-Jul-05 06:33N 51°16' E 004°22'0 0.0
2015-Jul-05 05:33N 51°16' E 004°22'0 0.0
2015-Jul-05 04:33N 51°16' E 004°22'0 0.0
2015-Jul-05 03:33N 51°16' E 004°22'0 0.0
2015-Jul-05 02:33N 51°16' E 004°22'0 0.0
2015-Jul-05 01:30N 51°16' E 004°22'0 0.0
2015-Jul-05 00:27N 51°16' E 004°22'0 0.0
2015-Jul-04 23:30N 51°16' E 004°22'0 0.0
2015-Jul-04 22:33N 51°16' E 004°22'0 0.0
2015-Jul-04 21:33N 51°16' E 004°22'0 0.0
2015-Jul-04 20:33N 51°16' E 004°22'0 0.0
2015-Jul-04 19:33N 51°16' E 004°22'0 0.0
2015-Jul-04 18:33N 51°16' E 004°22'6 6.0
2015-Jul-04 17:33N 51°21' E 004°17'0 0.0
2015-Jul-04 16:34N 51°21' E 004°17'5 4.9
2015-Jul-04 15:34N 51°24' E 004°11'9 9.3
2015-Jul-04 14:33N 51°22' E 003°56'1413.9
2015-Jul-04 13:33N 51°25' E 003°34'1716.8
2015-Jul-04 12:33N 51°24' E 003°07'1514.7
2015-Jul-04 11:33N 51°22' E 002°44'7 6.4
2015-Jul-04 10:26N 51°20' E 002°33'0 0.0
2015-Jul-04 09:16N 51°20' E 002°33'0 0.1
2015-Jul-04 08:23N 51°20' E 002°33'0 0.0
2015-Jul-04 07:25N 51°20' E 002°33'0 0.1
2015-Jul-04 06:29N 51°20' E 002°33'0 0.0
2015-Jul-04 05:31N 51°20' E 002°33'0 0.0
2015-Jul-04 04:25N 51°20' E 002°33'0 0.0
2015-Jul-04 03:28N 51°20' E 002°33'0 0.0
2015-Jul-04 02:22N 51°20' E 002°33'0 0.0
2015-Jul-04 01:28N 51°20' E 002°33'0 0.1
2015-Jul-04 00:31N 51°20' E 002°33'0 0.1
2015-Jul-03 23:28N 51°20' E 002°33'0 0.0
2015-Jul-03 22:28N 51°20' E 002°33'0 0.0
2015-Jul-03 20:25N 51°20' E 002°33'0 0.1
2015-Jul-03 19:31N 51°20' E 002°33'0 0.0
2015-Jul-03 18:25N 51°20' E 002°33'0 0.0
2015-Jul-03 17:22N 51°20' E 002°33'0 0.1
2015-Jul-03 16:31N 51°20' E 002°33'0 0.1
2015-Jul-03 15:31N 51°20' E 002°33'0 0.0
2015-Jul-03 14:29N 51°20' E 002°33'0 0.0
2015-Jul-03 13:31N 51°20' E 002°33'0 0.1
2015-Jul-03 12:17N 51°20' E 002°33'0 0.1
2015-Jul-03 11:22N 51°20' E 002°33'0 0.0
2015-Jul-03 10:28N 51°20' E 002°33'0 0.0
2015-Jul-03 09:13N 51°20' E 002°33'0 0.0
2015-Jul-03 07:19N 51°20' E 002°33'0 0.0
2015-Jul-03 06:31N 51°20' E 002°33'0 0.0
2015-Jul-03 05:16N 51°20' E 002°33'0 0.1
2015-Jul-03 04:31N 51°20' E 002°33'0 0.0
2015-Jul-03 03:25N 51°20' E 002°33'0 0.0
2015-Jul-03 02:31N 51°20' E 002°33'0 0.0
2015-Jul-03 01:31N 51°20' E 002°33'0 0.0
2015-Jul-03 00:31N 51°20' E 002°33'7 6.7
2015-Jul-02 23:28N 51°20' E 002°22'1415.2
2015-Jul-02 22:33N 51°13' E 002°03'1414.1
2015-Jul-02 21:34N 51°05' E 001°45'1312.9
2015-Jul-02 20:33N 50°56' E 001°30'9012.2
2015-Jul-02 13:12N 49°50' W 000°06'913.3
2015-Jul-02 12:34N 49°41' W 000°09'1211.7
2015-Jul-02 11:33N 49°30' W 000°07'1313.4
2015-Jul-02 10:33N 49°26' E 000°13'1212.3
2015-Jul-02 09:33N 49°29' E 000°31'12 5.8
2015-Jul-02 07:33N 49°28' E 000°49'5 4.1
2015-Jul-02 06:27N 49°29' E 000°56'5 0.3
2015-Jul-01 12:18N 49°27' E 000°49'6 6.5
2015-Jul-01 11:20N 49°29' E 000°40'6 7.0
2015-Jul-01 10:33N 49°29' E 000°32'1111.3
2015-Jul-01 09:33N 49°26' E 000°15'1211.9
2015-Jul-01 08:33N 49°29' W 000°03'9 9.2
2015-Jul-01 07:33N 49°37' W 000°11'1211.8
2015-Jul-01 06:33N 49°48' W 000°08'1212.3
2015-Jul-01 05:33N 49°57' E 000°05'6412.5
2015-Jul-01 00:27N 50°48' E 001°06'1111.9
2015-Jun-30 23:33N 50°55' E 001°18'1110.7
2015-Jun-30 22:33N 51°03' E 001°30'1110.8
2015-Jun-30 21:34N 51°11' E 001°42'1313.1
2015-Jun-30 20:34N 51°22' E 001°54'1514.8
2015-Jun-30 19:33N 51°33' E 002°09'1715.1
2015-Jun-30 18:28N 51°45' E 002°26'3113.1
2015-Jun-30 16:07N 52°03' E 003°07'813.0
2015-Jun-30 15:32N 52°03' E 003°20'1212.6
2015-Jun-30 14:33N 52°05' E 003°40'1211.9
2015-Jun-30 13:33N 52°01' E 003°58'1212.2
2015-Jun-30 12:33N 51°55' E 004°15'3 2.5
2015-Jun-30 11:32N 51°52' E 004°16'0 0.0
2015-Jun-30 10:23N 51°52' E 004°16'0 0.0
2015-Jun-30 09:32N 51°52' E 004°16'0 0.0
2015-Jun-30 08:05N 51°52' E 004°16'0 0.0
2015-Jun-30 07:32N 51°52' E 004°16'0 0.0
2015-Jun-30 06:26N 51°52' E 004°16'0 0.0
2015-Jun-30 05:32N 51°52' E 004°16'0 0.0
2015-Jun-30 04:20N 51°52' E 004°16'0 0.0
2015-Jun-30 03:32N 51°52' E 004°16'0 0.0
2015-Jun-30 02:32N 51°52' E 004°16'0 0.0
2015-Jun-30 01:32N 51°52' E 004°16'0 0.0
2015-Jun-30 00:29N 51°52' E 004°16'0 0.0
2015-Jun-29 23:29N 51°52' E 004°16'0 0.0
2015-Jun-29 22:29N 51°52' E 004°16'0 0.0
2015-Jun-29 21:32N 51°52' E 004°16'0 0.0
2015-Jun-29 20:14N 51°52' E 004°16'1 2.0
2015-Jun-29 19:34N 51°53' E 004°18'10 9.7
2015-Jun-29 18:34N 51°59' E 004°05'1111.0
2015-Jun-29 17:34N 51°58' E 003°48'1 1.1
2015-Jun-29 16:32N 51°57' E 003°48'0 0.1
2015-Jun-29 15:32N 51°57' E 003°48'0 0.0
2015-Jun-29 14:32N 51°57' E 003°48'0 0.0
2015-Jun-29 13:32N 51°57' E 003°48'0 0.0
2015-Jun-29 12:32N 51°57' E 003°48'0 0.0
2015-Jun-29 11:32N 51°57' E 003°48'0 0.0
2015-Jun-29 10:29N 51°57' E 003°48'0 0.0
2015-Jun-29 09:32N 51°57' E 003°48'0 0.1
2015-Jun-29 08:32N 51°57' E 003°48'0 0.0
2015-Jun-29 07:32N 51°57' E 003°48'0 0.0
2015-Jun-29 06:23N 51°57' E 003°48'0 0.0
2015-Jun-29 05:29N 51°57' E 003°48'0 0.0
2015-Jun-29 04:32N 51°57' E 003°48'0 0.1
2015-Jun-29 03:32N 51°57' E 003°48'0 0.0
2015-Jun-29 02:32N 51°57' E 003°48'0 0.0
2015-Jun-29 01:32N 51°57' E 003°48'0 0.0
2015-Jun-29 00:32N 51°57' E 003°48'0 0.0
2015-Jun-28 23:32N 51°57' E 003°48'0 0.0
2015-Jun-28 22:32N 51°57' E 003°48'0 0.0
2015-Jun-28 21:32N 51°57' E 003°48'0 0.0
2015-Jun-28 20:32N 51°57' E 003°48'0 0.1
2015-Jun-28 19:29N 51°57' E 003°48'0 0.0
2015-Jun-28 18:32N 51°57' E 003°48'0 0.0
2015-Jun-28 17:32N 51°57' E 003°48'0 0.0
2015-Jun-28 16:32N 51°57' E 003°48'0 0.0
2015-Jun-28 15:32N 51°57' E 003°48'1 1.5
2015-Jun-28 14:33N 51°58' E 003°46'1514.8
2015-Jun-28 13:32N 51°55' E 003°22'1414.8
2015-Jun-28 12:33N 51°50' E 002°60'1312.9
2015-Jun-28 11:33N 51°52' E 002°39'1313.2
2015-Jun-28 10:34N 52°01' E 002°24'1312.9
2015-Jun-28 09:33N 52°13' E 002°15'8 8.1
2015-Jun-28 08:33N 52°09' E 002°26'1010.4
2015-Jun-28 07:33N 52°02' E 002°39'1413.5
2015-Jun-28 06:31N 52°02' E 003°02'1414.8
2015-Jun-28 05:33N 52°03' E 003°25'1514.7
2015-Jun-28 04:33N 52°03' E 003°49'1514.6
2015-Jun-28 03:34N 51°57' E 004°11'1212.3
2015-Jun-28 02:34N 51°50' E 004°27'9 9.5
2015-Jun-28 01:33N 51°43' E 004°37'3 0.6
2015-Jun-27 21:06N 51°42' E 004°34'0 0.0
2015-Jun-27 11:03N 51°42' E 004°34'0 0.0
2015-Jun-26 21:12N 51°41' E 004°34'3 4.7
2015-Jun-26 20:33N 51°44' E 004°38'7 7.4
2015-Jun-26 19:33N 51°50' E 004°31'8 8.4
2015-Jun-26 18:34N 51°54' E 004°19'1010.2
2015-Jun-26 17:33N 51°59' E 004°05'10 9.8
2015-Jun-26 16:33N 51°58' E 003°49'1 1.2
2015-Jun-26 15:30N 51°57' E 003°49'0 0.0
2015-Jun-26 14:33N 51°57' E 003°49'0 0.0
2015-Jun-26 13:33N 51°57' E 003°49'0 0.1
2015-Jun-26 12:33N 51°57' E 003°49'0 0.0
2015-Jun-26 11:33N 51°57' E 003°49'5 4.9
2015-Jun-26 10:33N 51°58' E 003°41'1413.9
2015-Jun-26 09:33N 51°54' E 003°20'1414.1
2015-Jun-26 08:34N 51°49' E 002°59'1413.8
2015-Jun-26 07:33N 51°45' E 002°37'1414.2
2015-Jun-26 06:33N 51°34' E 002°22'1413.8
2015-Jun-26 05:33N 51°23' E 002°11'1313.3
2015-Jun-26 04:33N 51°12' E 001°58'1313.2
2015-Jun-26 03:33N 51°04' E 001°41'1312.9
2015-Jun-26 02:33N 50°55' E 001°26'1212.2
2015-Jun-26 01:33N 50°43' E 001°22'1312.5
2015-Jun-26 00:33N 50°35' E 001°07'1212.4
2015-Jun-25 23:33N 50°30' E 000°49'4012.3
2015-Jun-25 20:18N 50°19' W 000°11'3412.1
2015-Jun-25 17:29N 50°16' W 001°05'1313.5
2015-Jun-25 16:33N 50°19' W 001°24'1413.9
2015-Jun-25 15:33N 50°19' W 001°45'1515.0
2015-Jun-25 14:33N 50°16' W 002°08'1514.9
2015-Jun-25 13:33N 50°13' W 002°31'1414.1
2015-Jun-25 12:34N 50°10' W 002°53'1413.6
2015-Jun-25 11:33N 50°08' W 003°14'1413.3
2015-Jun-25 10:32N 50°05' W 003°34'1413.0
2015-Jun-25 09:28N 50°03' W 003°56'  
Track history (hours):
 
Tides and Currents Weather Stations Pressure Air Temp Water Temp Dewpoint Dewpoint Depression Visibility Wind Speed Wind Dir Waves Ship Positions

Stolt Dipper

Last reported at 2015-Jul-05 07:30 UTC. Time now 2015-Jul-05 07:50 UTC.
Position N 51°16' E 004°22'.

Length 96 m; draft 5 m.

Type: Tanker. MMSI: 319036000.

Date/timePositionNaut miles runAvg speedWind from/ knotsBaromVisibWave heightAir tempDewpointWater temp
2015-Jul-05 07:30N 51°16' E 004°22'0 0.0
2015-Jul-05 06:33N 51°16' E 004°22'0 0.0
2015-Jul-05 05:33N 51°16' E 004°22'0 0.0
2015-Jul-05 04:33N 51°16' E 004°22'0 0.0
2015-Jul-05 03:33N 51°16' E 004°22'0 0.0
2015-Jul-05 02:33N 51°16' E 004°22'0 0.0
2015-Jul-05 01:30N 51°16' E 004°22'0 0.0
2015-Jul-05 00:27N 51°16' E 004°22'0 0.0
2015-Jul-04 23:30N 51°16' E 004°22'0 0.0
2015-Jul-04 22:33N 51°16' E 004°22'0 0.0
2015-Jul-04 21:33N 51°16' E 004°22'0 0.0
2015-Jul-04 20:33N 51°16' E 004°22'0 0.0
2015-Jul-04 19:33N 51°16' E 004°22'0 0.0
2015-Jul-04 18:33N 51°16' E 004°22'6 6.0
2015-Jul-04 17:33N 51°21' E 004°17'0 0.0
2015-Jul-04 16:34N 51°21' E 004°17'5 4.9
2015-Jul-04 15:34N 51°24' E 004°11'9 9.3
2015-Jul-04 14:33N 51°22' E 003°56'1413.9
2015-Jul-04 13:33N 51°25' E 003°34'1716.8
2015-Jul-04 12:33N 51°24' E 003°07'1514.7
2015-Jul-04 11:33N 51°22' E 002°44'7 6.4
2015-Jul-04 10:26N 51°20' E 002°33'0 0.0
2015-Jul-04 09:16N 51°20' E 002°33'0 0.1
2015-Jul-04 08:23N 51°20' E 002°33'0 0.0
2015-Jul-04 07:25N 51°20' E 002°33'0 0.1
2015-Jul-04 06:29N 51°20' E 002°33'0 0.0
2015-Jul-04 05:31N 51°20' E 002°33'0 0.0
2015-Jul-04 04:25N 51°20' E 002°33'0 0.0
2015-Jul-04 03:28N 51°20' E 002°33'0 0.0
2015-Jul-04 02:22N 51°20' E 002°33'0 0.0
2015-Jul-04 01:28N 51°20' E 002°33'0 0.1
2015-Jul-04 00:31N 51°20' E 002°33'0 0.1
2015-Jul-03 23:28N 51°20' E 002°33'0 0.0
2015-Jul-03 22:28N 51°20' E 002°33'0 0.0
2015-Jul-03 20:25N 51°20' E 002°33'0 0.1
2015-Jul-03 19:31N 51°20' E 002°33'0 0.0
2015-Jul-03 18:25N 51°20' E 002°33'0 0.0
2015-Jul-03 17:22N 51°20' E 002°33'0 0.1
2015-Jul-03 16:31N 51°20' E 002°33'0 0.1
2015-Jul-03 15:31N 51°20' E 002°33'0 0.0
2015-Jul-03 14:29N 51°20' E 002°33'0 0.0
2015-Jul-03 13:31N 51°20' E 002°33'0 0.1
2015-Jul-03 12:17N 51°20' E 002°33'0 0.1
2015-Jul-03 11:22N 51°20' E 002°33'0 0.0
2015-Jul-03 10:28N 51°20' E 002°33'0 0.0
2015-Jul-03 09:13N 51°20' E 002°33'0 0.0
2015-Jul-03 07:19N 51°20' E 002°33'0 0.0
2015-Jul-03 06:31N 51°20' E 002°33'0 0.0
2015-Jul-03 05:16N 51°20' E 002°33'0 0.1
2015-Jul-03 04:31N 51°20' E 002°33'0 0.0
2015-Jul-03 03:25N 51°20' E 002°33'0 0.0
2015-Jul-03 02:31N 51°20' E 002°33'0 0.0
2015-Jul-03 01:31N 51°20' E 002°33'0 0.0
2015-Jul-03 00:31N 51°20' E 002°33'7 6.7
2015-Jul-02 23:28N 51°20' E 002°22'1415.2
2015-Jul-02 22:33N 51°13' E 002°03'1414.1
2015-Jul-02 21:34N 51°05' E 001°45'1312.9
2015-Jul-02 20:33N 50°56' E 001°30'9012.2
2015-Jul-02 13:12N 49°50' W 000°06'913.3
2015-Jul-02 12:34N 49°41' W 000°09'1211.7
2015-Jul-02 11:33N 49°30' W 000°07'1313.4
2015-Jul-02 10:33N 49°26' E 000°13'1212.3
2015-Jul-02 09:33N 49°29' E 000°31'12 5.8
2015-Jul-02 07:33N 49°28' E 000°49'5 4.1
2015-Jul-02 06:27N 49°29' E 000°56'5 0.3
2015-Jul-01 12:18N 49°27' E 000°49'6 6.5
2015-Jul-01 11:20N 49°29' E 000°40'6 7.0
2015-Jul-01 10:33N 49°29' E 000°32'1111.3
2015-Jul-01 09:33N 49°26' E 000°15'1211.9
2015-Jul-01 08:33N 49°29' W 000°03'9 9.2
2015-Jul-01 07:33N 49°37' W 000°11'1211.8
2015-Jul-01 06:33N 49°48' W 000°08'1212.3
2015-Jul-01 05:33N 49°57' E 000°05'6412.5
2015-Jul-01 00:27N 50°48' E 001°06'1111.9
2015-Jun-30 23:33N 50°55' E 001°18'1110.7
2015-Jun-30 22:33N 51°03' E 001°30'1110.8
2015-Jun-30 21:34N 51°11' E 001°42'1313.1
2015-Jun-30 20:34N 51°22' E 001°54'1514.8
2015-Jun-30 19:33N 51°33' E 002°09'1715.1
2015-Jun-30 18:28N 51°45' E 002°26'3113.1
2015-Jun-30 16:07N 52°03' E 003°07'813.0
2015-Jun-30 15:32N 52°03' E 003°20'1212.6
2015-Jun-30 14:33N 52°05' E 003°40'1211.9
2015-Jun-30 13:33N 52°01' E 003°58'1212.2
2015-Jun-30 12:33N 51°55' E 004°15'3 2.5
2015-Jun-30 11:32N 51°52' E 004°16'0 0.0
2015-Jun-30 10:23N 51°52' E 004°16'0 0.0
2015-Jun-30 09:32N 51°52' E 004°16'0 0.0
2015-Jun-30 08:05N 51°52' E 004°16'0 0.0
2015-Jun-30 07:32N 51°52' E 004°16'0 0.0
2015-Jun-30 06:26N 51°52' E 004°16'0 0.0
2015-Jun-30 05:32N 51°52' E 004°16'0 0.0
2015-Jun-30 04:20N 51°52' E 004°16'0 0.0
2015-Jun-30 03:32N 51°52' E 004°16'0 0.0
2015-Jun-30 02:32N 51°52' E 004°16'0 0.0
2015-Jun-30 01:32N 51°52' E 004°16'0 0.0
2015-Jun-30 00:29N 51°52' E 004°16'0 0.0
2015-Jun-29 23:29N 51°52' E 004°16'0 0.0
2015-Jun-29 22:29N 51°52' E 004°16'0 0.0
2015-Jun-29 21:32N 51°52' E 004°16'0 0.0
2015-Jun-29 20:14N 51°52' E 004°16'1 2.0
2015-Jun-29 19:34N 51°53' E 004°18'10 9.7
2015-Jun-29 18:34N 51°59' E 004°05'1111.0
2015-Jun-29 17:34N 51°58' E 003°48'1 1.1
2015-Jun-29 16:32N 51°57' E 003°48'0 0.1
2015-Jun-29 15:32N 51°57' E 003°48'0 0.0
2015-Jun-29 14:32N 51°57' E 003°48'0 0.0
2015-Jun-29 13:32N 51°57' E 003°48'0 0.0
2015-Jun-29 12:32N 51°57' E 003°48'0 0.0
2015-Jun-29 11:32N 51°57' E 003°48'0 0.0
2015-Jun-29 10:29N 51°57' E 003°48'0 0.0
2015-Jun-29 09:32N 51°57' E 003°48'0 0.1
2015-Jun-29 08:32N 51°57' E 003°48'0 0.0
2015-Jun-29 07:32N 51°57' E 003°48'0 0.0
2015-Jun-29 06:23N 51°57' E 003°48'0 0.0
2015-Jun-29 05:29N 51°57' E 003°48'0 0.0
2015-Jun-29 04:32N 51°57' E 003°48'0 0.1
2015-Jun-29 03:32N 51°57' E 003°48'0 0.0
2015-Jun-29 02:32N 51°57' E 003°48'0 0.0
2015-Jun-29 01:32N 51°57' E 003°48'0 0.0
2015-Jun-29 00:32N 51°57' E 003°48'0 0.0
2015-Jun-28 23:32N 51°57' E 003°48'0 0.0
2015-Jun-28 22:32N 51°57' E 003°48'0 0.0
2015-Jun-28 21:32N 51°57' E 003°48'0 0.0
2015-Jun-28 20:32N 51°57' E 003°48'0 0.1
2015-Jun-28 19:29N 51°57' E 003°48'0 0.0
2015-Jun-28 18:32N 51°57' E 003°48'0 0.0
2015-Jun-28 17:32N 51°57' E 003°48'0 0.0
2015-Jun-28 16:32N 51°57' E 003°48'0 0.0
2015-Jun-28 15:32N 51°57' E 003°48'1 1.5
2015-Jun-28 14:33N 51°58' E 003°46'1514.8
2015-Jun-28 13:32N 51°55' E 003°22'1414.8
2015-Jun-28 12:33N 51°50' E 002°60'1312.9
2015-Jun-28 11:33N 51°52' E 002°39'1313.2
2015-Jun-28 10:34N 52°01' E 002°24'1312.9
2015-Jun-28 09:33N 52°13' E 002°15'8 8.1
2015-Jun-28 08:33N 52°09' E 002°26'1010.4
2015-Jun-28 07:33N 52°02' E 002°39'1413.5
2015-Jun-28 06:31N 52°02' E 003°02'1414.8
2015-Jun-28 05:33N 52°03' E 003°25'1514.7
2015-Jun-28 04:33N 52°03' E 003°49'1514.6
2015-Jun-28 03:34N 51°57' E 004°11'1212.3
2015-Jun-28 02:34N 51°50' E 004°27'9 9.5
2015-Jun-28 01:33N 51°43' E 004°37'3 0.6
2015-Jun-27 21:06N 51°42' E 004°34'0 0.0
2015-Jun-27 11:03N 51°42' E 004°34'0 0.0
2015-Jun-26 21:12N 51°41' E 004°34'3 4.7
2015-Jun-26 20:33N 51°44' E 004°38'7 7.4
2015-Jun-26 19:33N 51°50' E 004°31'8 8.4
2015-Jun-26 18:34N 51°54' E 004°19'1010.2
2015-Jun-26 17:33N 51°59' E 004°05'10 9.8
2015-Jun-26 16:33N 51°58' E 003°49'1 1.2
2015-Jun-26 15:30N 51°57' E 003°49'0 0.0
2015-Jun-26 14:33N 51°57' E 003°49'0 0.0
2015-Jun-26 13:33N 51°57' E 003°49'0 0.1
2015-Jun-26 12:33N 51°57' E 003°49'0 0.0
2015-Jun-26 11:33N 51°57' E 003°49'5 4.9
2015-Jun-26 10:33N 51°58' E 003°41'1413.9
2015-Jun-26 09:33N 51°54' E 003°20'1414.1
2015-Jun-26 08:34N 51°49' E 002°59'1413.8
2015-Jun-26 07:33N 51°45' E 002°37'1414.2
2015-Jun-26 06:33N 51°34' E 002°22'1413.8
2015-Jun-26 05:33N 51°23' E 002°11'1313.3
2015-Jun-26 04:33N 51°12' E 001°58'1313.2
2015-Jun-26 03:33N 51°04' E 001°41'1312.9
2015-Jun-26 02:33N 50°55' E 001°26'1212.2
2015-Jun-26 01:33N 50°43' E 001°22'1312.5
2015-Jun-26 00:33N 50°35' E 001°07'1212.4
2015-Jun-25 23:33N 50°30' E 000°49'4012.3
2015-Jun-25 20:18N 50°19' W 000°11'3412.1
2015-Jun-25 17:29N 50°16' W 001°05'1313.5
2015-Jun-25 16:33N 50°19' W 001°24'1413.9
2015-Jun-25 15:33N 50°19' W 001°45'1515.0
2015-Jun-25 14:33N 50°16' W 002°08'1514.9
2015-Jun-25 13:33N 50°13' W 002°31'1414.1
2015-Jun-25 12:34N 50°10' W 002°53'1413.6
2015-Jun-25 11:33N 50°08' W 003°14'1413.3
2015-Jun-25 10:32N 50°05' W 003°34'1413.0
2015-Jun-25 09:28N 50°03' W 003°56'  

Dump ship's entire track history